sensor_id;sensor_type;location;lat;lon;timestamp;P1;durP1;ratioP1;P2;durP2;ratioP2
18917;SDS011;9591;52.742;13.650;2023-03-13T00:00:22;12.77;;;6.70;;
18917;SDS011;9591;52.742;13.650;2023-03-13T00:03:09;13.57;;;6.73;;
18917;SDS011;9591;52.742;13.650;2023-03-13T00:05:58;16.90;;;7.33;;
18917;SDS011;9591;52.742;13.650;2023-03-13T00:08:45;24.80;;;6.70;;
18917;SDS011;9591;52.742;13.650;2023-03-13T00:11:32;15.10;;;6.57;;
18917;SDS011;9591;52.742;13.650;2023-03-13T00:14:18;20.40;;;7.60;;
18917;SDS011;9591;52.742;13.650;2023-03-13T00:17:06;12.30;;;6.07;;
18917;SDS011;9591;52.742;13.650;2023-03-13T00:19:53;17.13;;;7.43;;
18917;SDS011;9591;52.742;13.650;2023-03-13T00:22:40;16.27;;;7.27;;
18917;SDS011;9591;52.742;13.650;2023-03-13T00:25:26;11.43;;;6.57;;
18917;SDS011;9591;52.742;13.650;2023-03-13T00:28:13;11.13;;;5.87;;
18917;SDS011;9591;52.742;13.650;2023-03-13T00:31:01;15.77;;;6.70;;
18917;SDS011;9591;52.742;13.650;2023-03-13T00:33:50;13.20;;;6.20;;
18917;SDS011;9591;52.742;13.650;2023-03-13T00:36:38;13.10;;;5.80;;
18917;SDS011;9591;52.742;13.650;2023-03-13T00:39:24;16.53;;;6.13;;
18917;SDS011;9591;52.742;13.650;2023-03-13T00:42:11;11.87;;;5.70;;
18917;SDS011;9591;52.742;13.650;2023-03-13T00:44:58;15.33;;;6.63;;
18917;SDS011;9591;52.742;13.650;2023-03-13T00:47:45;13.97;;;6.30;;
18917;SDS011;9591;52.742;13.650;2023-03-13T00:50:35;17.23;;;6.53;;
18917;SDS011;9591;52.742;13.650;2023-03-13T00:53:22;13.17;;;6.60;;
18917;SDS011;9591;52.742;13.650;2023-03-13T00:56:09;19.93;;;6.80;;
18917;SDS011;9591;52.742;13.650;2023-03-13T00:58:58;16.83;;;6.33;;
18917;SDS011;9591;52.742;13.650;2023-03-13T01:01:45;13.20;;;5.70;;
18917;SDS011;9591;52.742;13.650;2023-03-13T01:04:32;13.57;;;5.87;;
18917;SDS011;9591;52.742;13.650;2023-03-13T01:07:21;16.03;;;7.17;;
18917;SDS011;9591;52.742;13.650;2023-03-13T01:10:08;14.97;;;6.53;;
18917;SDS011;9591;52.742;13.650;2023-03-13T01:12:55;12.67;;;6.50;;
18917;SDS011;9591;52.742;13.650;2023-03-13T01:15:42;20.13;;;6.37;;
18917;SDS011;9591;52.742;13.650;2023-03-13T01:18:29;18.07;;;5.90;;
18917;SDS011;9591;52.742;13.650;2023-03-13T01:21:16;9.23;;;5.73;;
18917;SDS011;9591;52.742;13.650;2023-03-13T01:24:08;20.07;;;7.13;;
18917;SDS011;9591;52.742;13.650;2023-03-13T01:26:55;17.80;;;6.57;;
18917;SDS011;9591;52.742;13.650;2023-03-13T01:29:42;17.23;;;6.07;;
18917;SDS011;9591;52.742;13.650;2023-03-13T01:32:29;21.10;;;6.10;;
18917;SDS011;9591;52.742;13.650;2023-03-13T01:35:19;25.57;;;6.10;;
18917;SDS011;9591;52.742;13.650;2023-03-13T01:38:06;18.97;;;5.70;;
18917;SDS011;9591;52.742;13.650;2023-03-13T01:40:55;17.07;;;6.73;;
18917;SDS011;9591;52.742;13.650;2023-03-13T01:43:42;20.30;;;6.03;;
18917;SDS011;9591;52.742;13.650;2023-03-13T01:46:30;19.10;;;6.00;;
18917;SDS011;9591;52.742;13.650;2023-03-13T01:49:20;15.63;;;6.37;;
18917;SDS011;9591;52.742;13.650;2023-03-13T01:52:19;19.93;;;6.20;;
18917;SDS011;9591;52.742;13.650;2023-03-13T01:55:19;16.03;;;6.40;;
18917;SDS011;9591;52.742;13.650;2023-03-13T01:58:10;17.63;;;6.07;;
18917;SDS011;9591;52.742;13.650;2023-03-13T02:00:57;14.03;;;6.00;;
18917;SDS011;9591;52.742;13.650;2023-03-13T02:03:44;17.27;;;6.13;;
18917;SDS011;9591;52.742;13.650;2023-03-13T02:06:32;16.23;;;5.63;;
18917;SDS011;9591;52.742;13.650;2023-03-13T02:09:24;19.13;;;6.67;;
18917;SDS011;9591;52.742;13.650;2023-03-13T02:12:18;18.93;;;6.80;;
18917;SDS011;9591;52.742;13.650;2023-03-13T02:15:13;18.30;;;5.70;;
18917;SDS011;9591;52.742;13.650;2023-03-13T02:18:02;20.23;;;6.07;;
18917;SDS011;9591;52.742;13.650;2023-03-13T02:20:48;16.03;;;5.77;;
18917;SDS011;9591;52.742;13.650;2023-03-13T02:23:43;12.53;;;5.47;;
18917;SDS011;9591;52.742;13.650;2023-03-13T02:26:39;13.63;;;5.57;;
18917;SDS011;9591;52.742;13.650;2023-03-13T02:29:26;16.30;;;5.87;;
18917;SDS011;9591;52.742;13.650;2023-03-13T02:32:13;14.67;;;5.63;;
18917;SDS011;9591;52.742;13.650;2023-03-13T02:35:01;17.37;;;6.00;;
18917;SDS011;9591;52.742;13.650;2023-03-13T02:37:52;13.67;;;5.13;;
18917;SDS011;9591;52.742;13.650;2023-03-13T02:40:43;13.07;;;5.47;;
18917;SDS011;9591;52.742;13.650;2023-03-13T02:43:34;15.07;;;5.70;;
18917;SDS011;9591;52.742;13.650;2023-03-13T02:46:23;12.53;;;6.07;;
18917;SDS011;9591;52.742;13.650;2023-03-13T02:49:17;16.00;;;5.50;;
18917;SDS011;9591;52.742;13.650;2023-03-13T02:52:09;10.90;;;5.53;;
18917;SDS011;9591;52.742;13.650;2023-03-13T02:55:02;11.87;;;5.77;;
18917;SDS011;9591;52.742;13.650;2023-03-13T02:57:54;19.93;;;5.40;;
18917;SDS011;9591;52.742;13.650;2023-03-13T03:00:42;17.20;;;6.23;;
18917;SDS011;9591;52.742;13.650;2023-03-13T03:03:28;15.90;;;6.00;;
18917;SDS011;9591;52.742;13.650;2023-03-13T03:06:15;9.73;;;5.40;;
18917;SDS011;9591;52.742;13.650;2023-03-13T03:09:03;21.27;;;5.33;;
18917;SDS011;9591;52.742;13.650;2023-03-13T03:11:52;23.40;;;5.83;;
18917;SDS011;9591;52.742;13.650;2023-03-13T03:14:39;11.40;;;5.23;;
18917;SDS011;9591;52.742;13.650;2023-03-13T03:17:28;18.47;;;5.47;;
18917;SDS011;9591;52.742;13.650;2023-03-13T03:20:14;13.10;;;5.47;;
18917;SDS011;9591;52.742;13.650;2023-03-13T03:23:01;18.47;;;5.10;;
18917;SDS011;9591;52.742;13.650;2023-03-13T03:25:49;11.97;;;5.07;;
18917;SDS011;9591;52.742;13.650;2023-03-13T03:28:36;18.37;;;6.40;;
18917;SDS011;9591;52.742;13.650;2023-03-13T03:31:27;17.70;;;6.60;;
18917;SDS011;9591;52.742;13.650;2023-03-13T03:34:17;13.53;;;5.57;;
18917;SDS011;9591;52.742;13.650;2023-03-13T03:37:04;11.83;;;5.07;;
18917;SDS011;9591;52.742;13.650;2023-03-13T03:39:51;16.33;;;5.33;;
18917;SDS011;9591;52.742;13.650;2023-03-13T03:42:37;17.80;;;5.50;;
18917;SDS011;9591;52.742;13.650;2023-03-13T03:45:24;16.37;;;5.30;;
18917;SDS011;9591;52.742;13.650;2023-03-13T03:48:11;16.50;;;5.47;;
18917;SDS011;9591;52.742;13.650;2023-03-13T03:50:59;17.50;;;5.93;;
18917;SDS011;9591;52.742;13.650;2023-03-13T03:53:48;15.33;;;5.50;;
18917;SDS011;9591;52.742;13.650;2023-03-13T03:56:35;12.83;;;5.03;;
18917;SDS011;9591;52.742;13.650;2023-03-13T03:59:22;12.20;;;5.03;;
18917;SDS011;9591;52.742;13.650;2023-03-13T04:02:14;15.90;;;5.33;;
18917;SDS011;9591;52.742;13.650;2023-03-13T04:05:02;15.83;;;6.00;;
18917;SDS011;9591;52.742;13.650;2023-03-13T04:07:53;15.00;;;5.57;;
18917;SDS011;9591;52.742;13.650;2023-03-13T04:10:40;14.00;;;5.23;;
18917;SDS011;9591;52.742;13.650;2023-03-13T04:13:26;16.73;;;5.17;;
18917;SDS011;9591;52.742;13.650;2023-03-13T04:16:15;12.47;;;4.93;;
18917;SDS011;9591;52.742;13.650;2023-03-13T04:19:03;16.67;;;5.10;;
18917;SDS011;9591;52.742;13.650;2023-03-13T04:21:52;10.07;;;4.70;;
18917;SDS011;9591;52.742;13.650;2023-03-13T04:24:40;13.20;;;5.47;;
18917;SDS011;9591;52.742;13.650;2023-03-13T04:27:27;17.90;;;5.53;;
18917;SDS011;9591;52.742;13.650;2023-03-13T04:30:14;9.83;;;4.77;;
18917;SDS011;9591;52.742;13.650;2023-03-13T04:33:24;17.73;;;5.03;;
18917;SDS011;9591;52.742;13.650;2023-03-13T04:36:40;11.30;;;4.50;;
18917;SDS011;9591;52.742;13.650;2023-03-13T04:40:00;16.80;;;5.17;;
18917;SDS011;9591;52.742;13.650;2023-03-13T04:43:11;10.67;;;4.97;;
18917;SDS011;9591;52.742;13.650;2023-03-13T04:46:17;20.33;;;4.97;;
18917;SDS011;9591;52.742;13.650;2023-03-13T04:49:07;11.17;;;4.47;;
18917;SDS011;9591;52.742;13.650;2023-03-13T04:52:25;18.37;;;4.70;;
18917;SDS011;9591;52.742;13.650;2023-03-13T04:55:37;12.13;;;4.40;;
18917;SDS011;9591;52.742;13.650;2023-03-13T04:58:42;13.87;;;4.80;;
18917;SDS011;9591;52.742;13.650;2023-03-13T05:01:44;15.63;;;4.20;;
18917;SDS011;9591;52.742;13.650;2023-03-13T05:04:51;18.40;;;4.63;;
18917;SDS011;9591;52.742;13.650;2023-03-13T05:07:47;11.07;;;3.87;;
18917;SDS011;9591;52.742;13.650;2023-03-13T05:11:07;17.50;;;3.83;;
18917;SDS011;9591;52.742;13.650;2023-03-13T05:14:15;13.53;;;3.77;;
18917;SDS011;9591;52.742;13.650;2023-03-13T05:17:29;11.80;;;4.23;;
18917;SDS011;9591;52.742;13.650;2023-03-13T05:20:35;11.30;;;4.13;;
18917;SDS011;9591;52.742;13.650;2023-03-13T05:23:28;14.20;;;5.27;;
18917;SDS011;9591;52.742;13.650;2023-03-13T05:26:35;17.30;;;3.70;;
18917;SDS011;9591;52.742;13.650;2023-03-13T05:29:51;12.73;;;4.30;;
18917;SDS011;9591;52.742;13.650;2023-03-13T05:33:04;14.13;;;4.77;;
18917;SDS011;9591;52.742;13.650;2023-03-13T05:36:09;8.80;;;3.83;;
18917;SDS011;9591;52.742;13.650;2023-03-13T05:39:02;13.73;;;4.70;;
18917;SDS011;9591;52.742;13.650;2023-03-13T05:42:00;16.10;;;3.90;;
18917;SDS011;9591;52.742;13.650;2023-03-13T05:45:05;23.93;;;4.80;;
18917;SDS011;9591;52.742;13.650;2023-03-13T05:48:13;17.07;;;3.90;;
18917;SDS011;9591;52.742;13.650;2023-03-13T05:51:18;20.87;;;4.13;;
18917;SDS011;9591;52.742;13.650;2023-03-13T05:54:16;15.33;;;4.00;;
18917;SDS011;9591;52.742;13.650;2023-03-13T05:57:23;17.47;;;4.47;;
18917;SDS011;9591;52.742;13.650;2023-03-13T06:00:36;11.77;;;4.07;;
18917;SDS011;9591;52.742;13.650;2023-03-13T06:03:58;15.10;;;4.43;;
18917;SDS011;9591;52.742;13.650;2023-03-13T06:06:47;16.67;;;3.97;;
18917;SDS011;9591;52.742;13.650;2023-03-13T06:09:35;15.13;;;4.57;;
18917;SDS011;9591;52.742;13.650;2023-03-13T06:12:23;17.90;;;3.90;;
18917;SDS011;9591;52.742;13.650;2023-03-13T06:15:10;18.20;;;4.30;;
18917;SDS011;9591;52.742;13.650;2023-03-13T06:18:16;15.83;;;3.70;;
18917;SDS011;9591;52.742;13.650;2023-03-13T06:21:03;11.30;;;4.67;;
18917;SDS011;9591;52.742;13.650;2023-03-13T06:23:50;15.23;;;3.97;;
18917;SDS011;9591;52.742;13.650;2023-03-13T06:26:37;13.00;;;3.67;;
18917;SDS011;9591;52.742;13.650;2023-03-13T06:29:25;14.63;;;3.93;;
18917;SDS011;9591;52.742;13.650;2023-03-13T06:32:12;19.87;;;4.53;;
18917;SDS011;9591;52.742;13.650;2023-03-13T06:34:59;14.10;;;4.00;;
18917;SDS011;9591;52.742;13.650;2023-03-13T06:37:45;12.63;;;3.77;;
18917;SDS011;9591;52.742;13.650;2023-03-13T06:40:32;15.73;;;4.93;;
18917;SDS011;9591;52.742;13.650;2023-03-13T06:43:19;16.50;;;3.70;;
18917;SDS011;9591;52.742;13.650;2023-03-13T06:46:08;8.97;;;3.90;;
18917;SDS011;9591;52.742;13.650;2023-03-13T06:49:02;8.97;;;3.77;;
18917;SDS011;9591;52.742;13.650;2023-03-13T06:51:50;24.13;;;4.23;;
18917;SDS011;9591;52.742;13.650;2023-03-13T06:54:37;14.83;;;4.47;;
18917;SDS011;9591;52.742;13.650;2023-03-13T06:57:23;16.67;;;3.93;;
18917;SDS011;9591;52.742;13.650;2023-03-13T07:00:10;15.83;;;3.33;;
18917;SDS011;9591;52.742;13.650;2023-03-13T07:02:59;19.07;;;4.10;;
18917;SDS011;9591;52.742;13.650;2023-03-13T07:05:46;11.00;;;3.17;;
18917;SDS011;9591;52.742;13.650;2023-03-13T07:08:33;22.50;;;4.20;;
18917;SDS011;9591;52.742;13.650;2023-03-13T07:11:21;14.70;;;3.80;;
18917;SDS011;9591;52.742;13.650;2023-03-13T07:14:08;19.40;;;3.50;;
18917;SDS011;9591;52.742;13.650;2023-03-13T07:17:01;18.90;;;3.90;;
18917;SDS011;9591;52.742;13.650;2023-03-13T07:19:49;10.33;;;3.93;;
18917;SDS011;9591;52.742;13.650;2023-03-13T07:22:36;9.73;;;3.57;;
18917;SDS011;9591;52.742;13.650;2023-03-13T07:25:23;9.67;;;3.80;;
18917;SDS011;9591;52.742;13.650;2023-03-13T07:28:10;16.03;;;5.00;;
18917;SDS011;9591;52.742;13.650;2023-03-13T07:31:04;14.70;;;4.20;;
18917;SDS011;9591;52.742;13.650;2023-03-13T07:33:52;16.90;;;3.90;;
18917;SDS011;9591;52.742;13.650;2023-03-13T07:36:41;16.00;;;4.17;;
18917;SDS011;9591;52.742;13.650;2023-03-13T07:39:28;17.40;;;4.07;;
18917;SDS011;9591;52.742;13.650;2023-03-13T07:42:15;10.77;;;3.93;;
18917;SDS011;9591;52.742;13.650;2023-03-13T07:45:03;23.23;;;4.23;;
18917;SDS011;9591;52.742;13.650;2023-03-13T07:47:50;16.83;;;4.40;;
18917;SDS011;9591;52.742;13.650;2023-03-13T07:50:37;12.67;;;4.07;;
18917;SDS011;9591;52.742;13.650;2023-03-13T07:53:25;12.97;;;3.70;;
18917;SDS011;9591;52.742;13.650;2023-03-13T07:56:15;11.77;;;3.13;;
18917;SDS011;9591;52.742;13.650;2023-03-13T07:59:03;19.90;;;3.67;;
18917;SDS011;9591;52.742;13.650;2023-03-13T08:01:49;20.57;;;3.90;;
18917;SDS011;9591;52.742;13.650;2023-03-13T08:04:36;11.97;;;3.80;;
18917;SDS011;9591;52.742;13.650;2023-03-13T08:07:23;16.83;;;4.20;;
18917;SDS011;9591;52.742;13.650;2023-03-13T08:10:11;15.00;;;4.40;;
18917;SDS011;9591;52.742;13.650;2023-03-13T08:12:58;10.70;;;3.80;;
18917;SDS011;9591;52.742;13.650;2023-03-13T08:15:44;10.77;;;4.10;;
18917;SDS011;9591;52.742;13.650;2023-03-13T08:18:32;21.80;;;3.90;;
18917;SDS011;9591;52.742;13.650;2023-03-13T08:21:21;14.17;;;4.10;;
18917;SDS011;9591;52.742;13.650;2023-03-13T08:24:09;20.83;;;3.90;;
18917;SDS011;9591;52.742;13.650;2023-03-13T08:26:58;9.67;;;3.27;;
18917;SDS011;9591;52.742;13.650;2023-03-13T08:29:45;14.47;;;3.43;;
18917;SDS011;9591;52.742;13.650;2023-03-13T08:32:32;11.47;;;3.47;;
18917;SDS011;9591;52.742;13.650;2023-03-13T08:35:19;11.60;;;3.37;;
18917;SDS011;9591;52.742;13.650;2023-03-13T08:38:06;8.07;;;3.40;;
18917;SDS011;9591;52.742;13.650;2023-03-13T08:40:55;14.20;;;3.57;;
18917;SDS011;9591;52.742;13.650;2023-03-13T08:43:43;9.40;;;3.00;;
18917;SDS011;9591;52.742;13.650;2023-03-13T08:46:31;9.10;;;3.80;;
18917;SDS011;9591;52.742;13.650;2023-03-13T08:49:20;13.73;;;3.93;;
18917;SDS011;9591;52.742;13.650;2023-03-13T08:52:07;9.10;;;3.30;;
18917;SDS011;9591;52.742;13.650;2023-03-13T08:54:53;9.40;;;3.13;;
18917;SDS011;9591;52.742;13.650;2023-03-13T08:57:40;29.70;;;3.73;;
18917;SDS011;9591;52.742;13.650;2023-03-13T09:00:28;11.00;;;2.77;;
18917;SDS011;9591;52.742;13.650;2023-03-13T09:03:15;11.83;;;3.30;;
18917;SDS011;9591;52.742;13.650;2023-03-13T09:06:02;8.17;;;3.20;;
18917;SDS011;9591;52.742;13.650;2023-03-13T09:08:50;8.00;;;3.47;;
18917;SDS011;9591;52.742;13.650;2023-03-13T09:11:37;11.63;;;3.30;;
18917;SDS011;9591;52.742;13.650;2023-03-13T09:14:24;13.13;;;3.80;;
18917;SDS011;9591;52.742;13.650;2023-03-13T09:17:12;15.70;;;3.83;;
18917;SDS011;9591;52.742;13.650;2023-03-13T09:19:59;7.93;;;3.17;;
18917;SDS011;9591;52.742;13.650;2023-03-13T09:22:46;13.30;;;3.30;;
18917;SDS011;9591;52.742;13.650;2023-03-13T09:25:33;10.63;;;3.50;;
18917;SDS011;9591;52.742;13.650;2023-03-13T09:28:20;10.97;;;4.00;;
18917;SDS011;9591;52.742;13.650;2023-03-13T09:31:06;12.97;;;3.67;;
18917;SDS011;9591;52.742;13.650;2023-03-13T09:33:55;6.37;;;3.00;;
18917;SDS011;9591;52.742;13.650;2023-03-13T09:36:42;9.17;;;3.67;;
18917;SDS011;9591;52.742;13.650;2023-03-13T09:39:29;12.30;;;3.37;;
18917;SDS011;9591;52.742;13.650;2023-03-13T09:42:16;8.13;;;3.07;;
18917;SDS011;9591;52.742;13.650;2023-03-13T09:45:06;9.77;;;3.47;;
18917;SDS011;9591;52.742;13.650;2023-03-13T09:48:00;6.93;;;2.53;;
18917;SDS011;9591;52.742;13.650;2023-03-13T09:50:53;13.50;;;3.53;;
18917;SDS011;9591;52.742;13.650;2023-03-13T09:53:48;10.73;;;3.70;;
18917;SDS011;9591;52.742;13.650;2023-03-13T09:56:39;12.73;;;3.03;;
18917;SDS011;9591;52.742;13.650;2023-03-13T09:59:32;13.37;;;3.53;;
18917;SDS011;9591;52.742;13.650;2023-03-13T10:02:28;8.87;;;3.10;;
18917;SDS011;9591;52.742;13.650;2023-03-13T10:05:19;6.63;;;3.00;;
18917;SDS011;9591;52.742;13.650;2023-03-13T10:08:11;7.37;;;2.87;;
18917;SDS011;9591;52.742;13.650;2023-03-13T10:11:02;12.23;;;3.70;;
18917;SDS011;9591;52.742;13.650;2023-03-13T10:13:52;8.17;;;3.33;;
18917;SDS011;9591;52.742;13.650;2023-03-13T10:16:46;4.90;;;3.00;;
18917;SDS011;9591;52.742;13.650;2023-03-13T10:19:41;9.33;;;3.10;;
18917;SDS011;9591;52.742;13.650;2023-03-13T10:22:28;12.63;;;3.63;;
18917;SDS011;9591;52.742;13.650;2023-03-13T10:25:20;5.93;;;3.63;;
18917;SDS011;9591;52.742;13.650;2023-03-13T10:28:14;5.67;;;3.10;;
18917;SDS011;9591;52.742;13.650;2023-03-13T10:31:04;6.00;;;3.10;;
18917;SDS011;9591;52.742;13.650;2023-03-13T10:34:05;9.37;;;3.23;;
18917;SDS011;9591;52.742;13.650;2023-03-13T10:36:56;12.47;;;3.70;;
18917;SDS011;9591;52.742;13.650;2023-03-13T10:39:44;10.70;;;2.57;;
18917;SDS011;9591;52.742;13.650;2023-03-13T10:42:32;9.53;;;2.73;;
18917;SDS011;9591;52.742;13.650;2023-03-13T10:45:23;3.87;;;2.93;;
18917;SDS011;9591;52.742;13.650;2023-03-13T10:48:11;7.60;;;2.53;;
18917;SDS011;9591;52.742;13.650;2023-03-13T10:50:59;8.83;;;3.00;;
18917;SDS011;9591;52.742;13.650;2023-03-13T10:53:46;9.77;;;2.87;;
18917;SDS011;9591;52.742;13.650;2023-03-13T10:56:35;7.57;;;3.60;;
18917;SDS011;9591;52.742;13.650;2023-03-13T10:59:24;9.63;;;2.77;;
18917;SDS011;9591;52.742;13.650;2023-03-13T11:02:19;6.47;;;2.93;;
18917;SDS011;9591;52.742;13.650;2023-03-13T11:08:22;4.00;;;2.17;;
18917;SDS011;9591;52.742;13.650;2023-03-13T11:11:15;8.23;;;2.93;;
18917;SDS011;9591;52.742;13.650;2023-03-13T11:14:06;11.63;;;2.70;;
18917;SDS011;9591;52.742;13.650;2023-03-13T11:17:01;2.20;;;2.03;;
18917;SDS011;9591;52.742;13.650;2023-03-13T11:19:57;3.87;;;2.07;;
18917;SDS011;9591;52.742;13.650;2023-03-13T11:23:04;5.27;;;2.60;;
18917;SDS011;9591;52.742;13.650;2023-03-13T11:26:00;8.13;;;2.57;;
18917;SDS011;9591;52.742;13.650;2023-03-13T11:28:52;7.27;;;2.40;;
18917;SDS011;9591;52.742;13.650;2023-03-13T11:31:44;6.47;;;2.30;;
18917;SDS011;9591;52.742;13.650;2023-03-13T11:34:36;4.37;;;1.87;;
18917;SDS011;9591;52.742;13.650;2023-03-13T11:37:30;2.90;;;2.10;;
18917;SDS011;9591;52.742;13.650;2023-03-13T11:40:19;5.47;;;2.10;;
18917;SDS011;9591;52.742;13.650;2023-03-13T11:43:15;3.97;;;2.17;;
18917;SDS011;9591;52.742;13.650;2023-03-13T11:46:14;5.73;;;2.17;;
18917;SDS011;9591;52.742;13.650;2023-03-13T11:49:12;3.37;;;1.97;;
18917;SDS011;9591;52.742;13.650;2023-03-13T11:52:22;6.07;;;2.00;;
18917;SDS011;9591;52.742;13.650;2023-03-13T11:55:20;4.20;;;2.33;;
18917;SDS011;9591;52.742;13.650;2023-03-13T11:58:21;8.43;;;1.80;;
18917;SDS011;9591;52.742;13.650;2023-03-13T12:01:17;1.80;;;1.63;;
18917;SDS011;9591;52.742;13.650;2023-03-13T12:04:08;4.10;;;1.50;;
18917;SDS011;9591;52.742;13.650;2023-03-13T12:07:04;3.23;;;2.40;;
18917;SDS011;9591;52.742;13.650;2023-03-13T12:09:57;2.73;;;2.00;;
18917;SDS011;9591;52.742;13.650;2023-03-13T12:12:48;3.70;;;1.93;;
18917;SDS011;9591;52.742;13.650;2023-03-13T12:15:42;2.43;;;2.00;;
18917;SDS011;9591;52.742;13.650;2023-03-13T12:18:33;2.73;;;1.90;;
18917;SDS011;9591;52.742;13.650;2023-03-13T12:21:25;4.10;;;1.20;;
18917;SDS011;9591;52.742;13.650;2023-03-13T12:24:18;1.83;;;1.47;;
18917;SDS011;9591;52.742;13.650;2023-03-13T12:27:14;1.43;;;1.33;;
18917;SDS011;9591;52.742;13.650;2023-03-13T12:30:05;4.80;;;1.40;;
18917;SDS011;9591;52.742;13.650;2023-03-13T12:33:01;3.33;;;1.40;;
18917;SDS011;9591;52.742;13.650;2023-03-13T12:36:00;2.73;;;1.70;;
18917;SDS011;9591;52.742;13.650;2023-03-13T12:38:54;4.53;;;1.73;;
18917;SDS011;9591;52.742;13.650;2023-03-13T12:41:45;2.10;;;1.60;;
18917;SDS011;9591;52.742;13.650;2023-03-13T12:44:37;4.10;;;1.80;;
18917;SDS011;9591;52.742;13.650;2023-03-13T12:47:27;2.10;;;1.80;;
18917;SDS011;9591;52.742;13.650;2023-03-13T12:50:20;1.93;;;1.30;;
18917;SDS011;9591;52.742;13.650;2023-03-13T12:53:19;2.20;;;1.20;;
18917;SDS011;9591;52.742;13.650;2023-03-13T12:56:26;1.83;;;1.70;;
18917;SDS011;9591;52.742;13.650;2023-03-13T12:59:23;1.87;;;1.00;;
18917;SDS011;9591;52.742;13.650;2023-03-13T13:02:16;2.20;;;1.30;;
18917;SDS011;9591;52.742;13.650;2023-03-13T13:05:05;1.67;;;1.10;;
18917;SDS011;9591;52.742;13.650;2023-03-13T13:08:03;2.13;;;1.13;;
18917;SDS011;9591;52.742;13.650;2023-03-13T13:10:50;1.93;;;1.57;;
18917;SDS011;9591;52.742;13.650;2023-03-13T13:13:38;1.50;;;1.40;;
18917;SDS011;9591;52.742;13.650;2023-03-13T13:16:25;0.70;;;0.70;;
18917;SDS011;9591;52.742;13.650;2023-03-13T13:22:45;1.50;;;1.23;;
18917;SDS011;9591;52.742;13.650;2023-03-13T13:25:37;4.67;;;1.50;;
18917;SDS011;9591;52.742;13.650;2023-03-13T13:28:33;2.23;;;0.90;;
18917;SDS011;9591;52.742;13.650;2023-03-13T13:34:55;1.60;;;1.00;;
18917;SDS011;9591;52.742;13.650;2023-03-13T13:37:47;1.63;;;1.30;;
18917;SDS011;9591;52.742;13.650;2023-03-13T13:40:34;1.20;;;0.93;;
18917;SDS011;9591;52.742;13.650;2023-03-13T13:43:21;1.10;;;1.10;;
18917;SDS011;9591;52.742;13.650;2023-03-13T13:46:15;1.60;;;1.30;;
18917;SDS011;9591;52.742;13.650;2023-03-13T13:49:14;1.03;;;0.93;;
18917;SDS011;9591;52.742;13.650;2023-03-13T13:52:18;1.83;;;1.37;;
18917;SDS011;9591;52.742;13.650;2023-03-13T13:55:31;1.77;;;1.17;;
18917;SDS011;9591;52.742;13.650;2023-03-13T13:58:26;1.10;;;1.00;;
18917;SDS011;9591;52.742;13.650;2023-03-13T14:01:16;1.30;;;1.20;;
18917;SDS011;9591;52.742;13.650;2023-03-13T14:04:06;1.17;;;1.17;;
18917;SDS011;9591;52.742;13.650;2023-03-13T14:07:03;1.17;;;1.03;;
18917;SDS011;9591;52.742;13.650;2023-03-13T14:09:59;2.47;;;1.10;;
18917;SDS011;9591;52.742;13.650;2023-03-13T14:12:56;2.07;;;0.90;;
18917;SDS011;9591;52.742;13.650;2023-03-13T14:15:45;1.30;;;1.20;;
18917;SDS011;9591;52.742;13.650;2023-03-13T14:18:36;1.03;;;1.03;;
18917;SDS011;9591;52.742;13.650;2023-03-13T14:21:29;0.97;;;0.97;;
18917;SDS011;9591;52.742;13.650;2023-03-13T14:24:17;1.07;;;0.97;;
18917;SDS011;9591;52.742;13.650;2023-03-13T14:27:18;1.00;;;1.00;;
18917;SDS011;9591;52.742;13.650;2023-03-13T14:30:07;1.10;;;1.10;;
18917;SDS011;9591;52.742;13.650;2023-03-13T14:32:59;1.80;;;1.10;;
18917;SDS011;9591;52.742;13.650;2023-03-13T14:35:56;1.07;;;1.00;;
18917;SDS011;9591;52.742;13.650;2023-03-13T14:38:58;1.17;;;1.10;;
18917;SDS011;9591;52.742;13.650;2023-03-13T14:42:03;2.07;;;1.30;;
18917;SDS011;9591;52.742;13.650;2023-03-13T14:44:56;1.93;;;1.40;;
18917;SDS011;9591;52.742;13.650;2023-03-13T14:47:44;2.50;;;1.23;;
18917;SDS011;9591;52.742;13.650;2023-03-13T14:50:34;4.20;;;1.20;;
18917;SDS011;9591;52.742;13.650;2023-03-13T14:53:22;2.13;;;1.13;;
18917;SDS011;9591;52.742;13.650;2023-03-13T14:56:12;1.47;;;1.27;;
18917;SDS011;9591;52.742;13.650;2023-03-13T14:59:15;3.40;;;1.70;;
18917;SDS011;9591;52.742;13.650;2023-03-13T15:02:26;2.37;;;1.10;;
18917;SDS011;9591;52.742;13.650;2023-03-13T15:05:32;1.90;;;1.67;;
18917;SDS011;9591;52.742;13.650;2023-03-13T15:08:35;4.80;;;1.60;;
18917;SDS011;9591;52.742;13.650;2023-03-13T15:11:54;1.80;;;1.40;;
18917;SDS011;9591;52.742;13.650;2023-03-13T15:14:50;1.30;;;1.20;;
18917;SDS011;9591;52.742;13.650;2023-03-13T15:21:21;1.30;;;1.20;;
18917;SDS011;9591;52.742;13.650;2023-03-13T15:24:16;1.50;;;1.40;;
18917;SDS011;9591;52.742;13.650;2023-03-13T15:27:17;1.20;;;1.10;;
18917;SDS011;9591;52.742;13.650;2023-03-13T15:30:14;1.40;;;1.30;;
18917;SDS011;9591;52.742;13.650;2023-03-13T15:33:09;1.83;;;1.30;;
18917;SDS011;9591;52.742;13.650;2023-03-13T15:36:09;3.03;;;1.20;;
18917;SDS011;9591;52.742;13.650;2023-03-13T15:39:01;2.47;;;1.47;;
18917;SDS011;9591;52.742;13.650;2023-03-13T15:42:03;1.40;;;1.30;;
18917;SDS011;9591;52.742;13.650;2023-03-13T15:45:05;2.70;;;1.70;;
18917;SDS011;9591;52.742;13.650;2023-03-13T15:48:15;3.37;;;1.60;;
18917;SDS011;9591;52.742;13.650;2023-03-13T15:51:10;3.63;;;1.40;;
18917;SDS011;9591;52.742;13.650;2023-03-13T15:54:03;1.83;;;1.43;;
18917;SDS011;9591;52.742;13.650;2023-03-13T15:56:59;1.50;;;1.37;;
18917;SDS011;9591;52.742;13.650;2023-03-13T15:59:54;1.67;;;1.00;;
18917;SDS011;9591;52.742;13.650;2023-03-13T16:02:51;3.83;;;1.40;;
18917;SDS011;9591;52.742;13.650;2023-03-13T16:05:53;1.73;;;1.43;;
18917;SDS011;9591;52.742;13.650;2023-03-13T16:08:52;3.40;;;1.40;;
18917;SDS011;9591;52.742;13.650;2023-03-13T16:11:59;3.00;;;1.37;;
18917;SDS011;9591;52.742;13.650;2023-03-13T16:14:59;1.90;;;1.40;;
18917;SDS011;9591;52.742;13.650;2023-03-13T16:18:00;1.20;;;1.17;;
18917;SDS011;9591;52.742;13.650;2023-03-13T16:21:10;1.40;;;1.30;;
18917;SDS011;9591;52.742;13.650;2023-03-13T16:24:10;2.40;;;1.73;;
18917;SDS011;9591;52.742;13.650;2023-03-13T16:27:14;2.97;;;1.60;;
18917;SDS011;9591;52.742;13.650;2023-03-13T16:30:14;4.00;;;1.53;;
18917;SDS011;9591;52.742;13.650;2023-03-13T16:33:20;1.90;;;1.33;;
18917;SDS011;9591;52.742;13.650;2023-03-13T16:36:33;2.90;;;1.17;;
18917;SDS011;9591;52.742;13.650;2023-03-13T16:39:30;3.30;;;1.63;;
18917;SDS011;9591;52.742;13.650;2023-03-13T16:42:22;1.60;;;1.50;;
18917;SDS011;9591;52.742;13.650;2023-03-13T16:45:17;4.07;;;1.37;;
18917;SDS011;9591;52.742;13.650;2023-03-13T16:48:12;2.43;;;1.60;;
18917;SDS011;9591;52.742;13.650;2023-03-13T16:51:22;2.07;;;1.50;;
18917;SDS011;9591;52.742;13.650;2023-03-13T16:54:30;4.27;;;1.80;;
18917;SDS011;9591;52.742;13.650;2023-03-13T16:57:24;1.87;;;1.50;;
18917;SDS011;9591;52.742;13.650;2023-03-13T17:00:33;2.27;;;1.40;;
18917;SDS011;9591;52.742;13.650;2023-03-13T17:03:53;1.83;;;1.50;;
18917;SDS011;9591;52.742;13.650;2023-03-13T17:06:48;3.43;;;1.43;;
18917;SDS011;9591;52.742;13.650;2023-03-13T17:09:48;1.77;;;1.60;;
18917;SDS011;9591;52.742;13.650;2023-03-13T17:12:41;5.40;;;2.10;;
18917;SDS011;9591;52.742;13.650;2023-03-13T17:15:35;1.37;;;1.27;;
18917;SDS011;9591;52.742;13.650;2023-03-13T17:18:36;5.97;;;1.80;;
18917;SDS011;9591;52.742;13.650;2023-03-13T17:21:29;2.30;;;2.10;;
18917;SDS011;9591;52.742;13.650;2023-03-13T17:24:40;3.47;;;1.70;;
18917;SDS011;9591;52.742;13.650;2023-03-13T17:27:31;2.30;;;1.80;;